Time;durP1;ratioP1;P1;durP2;ratioP2;P2;SDS_P1;SDS_P2;PMS_P1;PMS_P2;Temp;Humidity;BMP_temperature;BMP_pressure;BME280_temperature;BME280_humidity;BME280_pressure;Samples;Min_cycle;Max_cycle;Signal;HPM_P1;HPM_P2
2022/07/16 00:01:53;;;;;;;4.33;3.90;;;14.50;58.50;;;13.38;62.17;98335.09;5007222;28;20478;-77
2022/07/16 00:04:22;;;;;;;6.50;4.20;;;14.40;58.60;;;13.40;62.21;98346.56;4992616;28;20553;-79
2022/07/16 00:06:49;;;;;;;4.63;4.17;;;14.40;59.00;;;13.33;62.42;98354.75;4995945;28;20875;-77
2022/07/16 00:09:16;;;;;;;4.20;3.80;;;14.40;59.20;;;13.20;62.92;98346.78;4992378;28;20463;-79
2022/07/16 00:11:44;;;;;;;6.33;4.60;;;14.20;59.50;;;13.06;63.55;98337.94;4995610;28;20497;-78
2022/07/16 00:14:11;;;;;;;4.97;4.47;;;14.10;60.00;;;13.07;63.61;98340.44;4993755;28;20492;-76
2022/07/16 00:16:38;;;;;;;5.57;4.50;;;14.00;60.60;;;13.07;63.71;98336.88;4993835;28;20466;-81
2022/07/16 00:19:20;;;;;;;5.20;4.70;;;14.00;61.10;;;12.91;64.23;98333.69;4993074;28;20470;-79
2022/07/16 00:21:54;;;;;;;4.60;4.20;;;13.90;61.50;;;12.90;64.26;98342.88;4990479;28;20483;-79
2022/07/16 00:24:22;;;;;;;5.57;4.27;;;13.90;61.80;;;12.93;64.11;98334.28;5005275;28;20461;-80
2022/07/16 00:26:50;;;;;;;5.00;4.50;;;13.90;62.10;;;12.86;64.18;98341.69;5007444;28;20477;-78
2022/07/16 00:29:19;;;;;;;4.40;4.00;;;13.90;62.30;;;12.83;64.44;98337.50;4995211;28;20462;-76
2022/07/16 00:31:48;;;;;;;4.90;4.50;;;13.80;62.60;;;12.80;64.45;98332.53;4998835;28;20463;-80
2022/07/16 00:34:15;;;;;;;5.13;4.73;;;13.80;62.90;;;12.91;64.59;98333.69;4991144;28;21138;-72
2022/07/16 00:36:43;;;;;;;5.20;4.60;;;13.80;63.50;;;12.70;64.86;98337.63;4990354;28;20544;-78
2022/07/16 00:39:12;;;;;;;6.23;4.67;;;13.70;63.60;;;12.56;65.38;98336.91;4995772;28;20536;-76
2022/07/16 00:41:42;;;;;;;5.07;4.53;;;13.60;64.10;;;12.53;65.87;98342.78;4994659;28;20481;-75
2022/07/16 00:44:14;;;;;;;6.17;4.67;;;13.60;64.80;;;12.46;65.95;98338.22;4996798;28;20456;-75
2022/07/16 00:46:43;;;;;;;4.77;4.20;;;13.50;65.30;;;12.43;66.36;98341.38;4997769;28;20465;-74
2022/07/16 00:49:11;;;;;;;4.97;4.57;;;13.50;66.30;;;12.37;66.12;98338.72;4993925;28;20948;-79
2022/07/16 00:51:44;;;;;;;7.93;5.00;;;13.40;66.30;;;12.47;66.14;98331.75;4996923;28;20477;-74
2022/07/16 00:54:13;;;;;;;7.77;4.83;;;13.40;67.00;;;12.64;65.55;98344.75;4996324;28;20800;-78
2022/07/16 00:56:41;;;;;;;5.20;4.70;;;13.50;67.20;;;12.49;66.47;98345.09;4999187;28;20464;-71
2022/07/16 00:59:08;;;;;;;5.03;4.63;;;13.50;67.50;;;12.00;66.47;98277.06;5006832;28;20465;-74
2022/07/16 01:01:36;;;;;;;4.63;4.23;;;13.40;67.70;;;12.30;66.67;98342.31;5029587;28;20478;-74
2022/07/16 01:04:04;;;;;;;6.03;4.67;;;13.40;67.80;;;12.23;67.02;98348.81;5013909;28;20463;-71
2022/07/16 01:06:32;;;;;;;4.83;4.43;;;13.30;68.30;;;12.24;66.85;98336.94;5003901;28;20486;-72
2022/07/16 01:09:01;;;;;;;8.13;4.87;;;13.20;68.70;;;12.31;67.11;98346.69;4992485;28;20474;-72
2022/07/16 01:11:32;;;;;;;5.73;4.80;;;13.30;68.90;;;12.17;66.99;98354.03;4998267;28;20454;-71
2022/07/16 01:14:01;;;;;;;5.40;4.90;;;13.20;68.90;;;12.13;67.46;98350.13;4993145;28;20467;-76
2022/07/16 01:16:29;;;;;;;7.00;5.03;;;13.20;69.30;;;12.22;67.39;98349.88;4994520;28;20470;-75
2022/07/16 01:18:56;;;;;;;5.00;4.60;;;13.20;69.40;;;12.24;66.90;98343.16;5010978;28;20471;-73
2022/07/16 01:21:23;;;;;;;6.30;4.10;;;13.20;69.30;;;12.07;67.50;98350.16;4999265;28;20510;-72
2022/07/16 01:23:52;;;;;;;5.93;4.60;;;13.10;69.30;;;12.02;67.36;98358.94;5001262;28;20475;-76
2022/07/16 01:26:19;;;;;;;5.37;4.87;;;13.10;69.50;;;12.03;67.49;98349.75;5018630;28;20527;-77
2022/07/16 01:28:47;;;;;;;5.80;4.30;;;13.10;69.60;;;11.99;68.16;98356.63;4994656;28;20496;-78
2022/07/16 01:31:14;;;;;;;5.70;5.07;;;13.10;70.00;;;12.00;67.84;98351.00;4997422;28;20463;-77
2022/07/16 01:33:42;;;;;;;4.87;4.47;;;13.00;70.20;;;11.93;67.57;98352.91;4993679;28;20533;-77
2022/07/16 01:36:13;;;;;;;7.90;4.60;;;13.00;70.40;;;11.84;67.93;98346.91;4998148;28;20461;-76
2022/07/16 01:38:42;;;;;;;5.03;4.37;;;12.90;70.60;;;11.97;67.69;98356.03;4994422;28;20487;-77
2022/07/16 01:41:13;;;;;;;5.77;5.03;;;12.90;70.90;;;11.97;67.59;98350.59;4999192;28;20884;-76
2022/07/16 01:43:40;;;;;;;4.23;3.93;;;13.00;70.70;;;11.86;68.33;98360.25;4989739;28;21013;-76
2022/07/16 01:46:08;;;;;;;6.97;4.33;;;12.90;70.90;;;11.85;68.29;98351.28;4996042;28;20524;-76
2022/07/16 01:48:35;;;;;;;5.37;4.77;;;12.90;71.20;;;11.86;68.34;98354.81;4996624;28;20476;-75
2022/07/16 01:51:03;;;;;;;7.20;4.67;;;12.80;71.20;;;11.70;68.72;98351.56;4994193;28;20525;-76
2022/07/16 01:53:30;;;;;;;5.87;4.43;;;12.70;71.60;;;11.84;68.78;98357.75;4991537;28;20460;-76
2022/07/16 01:55:58;;;;;;;5.03;4.63;;;12.70;72.30;;;11.97;68.33;98345.19;4995198;28;20492;-75
2022/07/16 01:58:28;;;;;;;7.43;4.33;;;12.90;72.30;;;11.88;68.75;98350.84;4998905;28;20518;-73
2022/07/16 02:00:55;;;;;;;5.47;4.50;;;12.80;72.30;;;11.86;68.97;98349.41;5011884;28;20476;-77
2022/07/16 02:03:22;;;;;;;5.33;4.60;;;12.80;72.50;;;11.75;68.96;98342.78;5014653;28;20457;-77
2022/07/16 02:05:49;;;;;;;6.53;4.37;;;12.80;72.70;;;11.61;69.38;98337.44;4996163;28;20548;-75
2022/07/16 02:08:16;;;;;;;4.93;4.40;;;12.60;73.30;;;11.68;69.34;98347.41;4999529;28;20444;-79
2022/07/16 02:10:44;;;;;;;6.37;4.73;;;12.60;73.80;;;11.75;69.68;98337.34;5011666;28;20452;-77
2022/07/16 02:13:11;;;;;;;8.73;5.20;;;12.60;74.10;;;11.42;69.64;98279.66;4999025;28;20514;-78
2022/07/16 02:15:40;;;;;;;5.57;5.07;;;12.70;74.20;;;11.58;70.18;98337.03;4994809;28;20453;-73
2022/07/16 02:18:07;;;;;;;5.10;4.63;;;12.60;74.10;;;11.52;70.08;98341.41;5001765;28;20518;-78
2022/07/16 02:20:34;;;;;;;7.13;5.40;;;12.50;74.50;;;11.50;70.70;98340.81;4999740;28;20473;-76
2022/07/16 02:23:02;;;;;;;5.27;4.77;;;12.50;74.70;;;11.57;69.84;98336.19;5010678;28;20586;-73
2022/07/16 02:25:29;;;;;;;5.80;5.30;;;12.50;74.80;;;11.62;70.07;98339.09;4992344;28;20464;-77
2022/07/16 02:28:09;;;;;;;5.60;5.10;;;12.50;74.70;;;11.50;70.39;98329.97;4999209;28;20446;-80
2022/07/16 02:30:40;;;;;;;5.30;4.40;;;12.50;74.80;;;11.39;70.88;98320.66;4993473;28;20458;-75
2022/07/16 02:33:08;;;;;;;5.70;5.17;;;12.40;75.40;;;11.64;70.95;98341.56;4993703;28;20538;-71
2022/07/16 02:35:37;;;;;;;5.40;4.80;;;12.50;75.70;;;11.75;70.71;98337.34;4994299;28;20469;-72
2022/07/16 02:38:05;;;;;;;5.70;5.10;;;12.70;75.70;;;11.77;70.50;98338.00;5008343;28;20961;-77
2022/07/16 02:40:34;;;;;;;7.13;5.33;;;12.70;75.60;;;11.83;70.99;98344.41;4991745;28;20460;-73
2022/07/16 02:43:03;;;;;;;5.77;4.87;;;12.70;76.10;;;11.65;71.07;98343.25;4992655;28;20505;-73
2022/07/16 02:45:31;;;;;;;6.23;5.50;;;12.70;76.00;;;11.48;71.73;98351.03;4994627;28;20465;-74
2022/07/16 02:48:00;;;;;;;5.60;4.67;;;12.50;76.30;;;11.50;71.41;98346.22;5006396;28;20461;-75
2022/07/16 02:50:28;;;;;;;5.23;4.73;;;12.50;76.90;;;11.48;71.83;98351.84;4990422;28;20467;-78
2022/07/16 02:52:55;;;;;;;5.40;4.90;;;12.50;76.90;;;11.33;71.73;98340.44;4992059;28;21117;-80
2022/07/16 02:55:22;;;;;;;6.30;5.13;;;12.40;76.80;;;11.38;72.36;98353.31;4991278;28;20977;-80
2022/07/16 02:57:50;;;;;;;10.30;6.13;;;12.30;77.30;;;11.25;72.08;98341.50;4991999;28;20529;-78
2022/07/16 03:00:18;;;;;;;5.47;5.00;;;12.30;77.50;;;11.19;72.46;98343.16;4992009;28;20836;-75
2022/07/16 03:02:46;;;;;;;6.73;5.37;;;12.30;77.90;;;10.81;73.46;98294.38;4993930;28;20463;-80
2022/07/16 03:05:15;;;;;;;7.70;6.00;;;12.10;78.40;;;11.18;72.87;98343.41;5004903;28;21030;-78
2022/07/16 03:07:43;;;;;;;7.23;5.77;;;12.20;78.90;;;11.16;73.56;98345.50;5008702;28;20453;-76
2022/07/16 03:10:12;;;;;;;5.97;5.50;;;12.20;78.90;;;11.08;73.84;98343.84;5005452;28;20484;-76
2022/07/16 03:12:40;;;;;;;5.83;5.23;;;12.10;79.50;;;11.24;72.92;98349.84;5008959;28;20466;-77
2022/07/16 03:15:10;;;;;;;7.10;6.40;;;12.20;79.20;;;11.24;72.44;98345.25;4990395;28;22580;-76
2022/07/16 03:17:38;;;;;;;7.60;5.77;;;12.20;78.60;;;11.20;72.92;98357.53;5001863;28;20492;-71
2022/07/16 03:20:06;;;;;;;6.03;4.90;;;12.20;78.60;;;11.19;72.58;98355.88;5011613;28;20487;-72
2022/07/16 03:22:35;;;;;;;6.53;5.80;;;12.30;78.20;;;11.19;72.93;98356.69;5018262;28;20483;-75
2022/07/16 03:25:02;;;;;;;6.60;6.00;;;12.20;77.90;;;11.01;73.54;98356.53;5022058;28;20472;-72
2022/07/16 03:27:29;;;;;;;5.77;5.27;;;12.10;78.20;;;11.02;73.56;98358.19;5007101;28;20513;-79
2022/07/16 03:29:57;;;;;;;6.30;5.70;;;12.10;78.80;;;10.94;73.77;98359.22;4995494;28;21319;-74
2022/07/16 03:32:24;;;;;;;6.30;5.40;;;12.00;79.20;;;10.87;74.23;98358.41;4995917;28;20457;-77
2022/07/16 03:34:51;;;;;;;5.50;5.00;;;11.90;79.40;;;10.91;74.13;98359.66;4991086;28;20479;-74
2022/07/16 03:37:19;;;;;;;5.50;5.00;;;11.90;79.80;;;10.91;74.28;98354.25;4994672;28;20450;-73
2022/07/16 03:39:47;;;;;;;5.57;5.17;;;11.90;80.20;;;10.88;74.03;98354.69;4998665;28;20465;-77
2022/07/16 03:42:15;;;;;;;8.17;6.10;;;11.90;79.80;;;10.56;74.39;98303.13;4989449;28;20512;-76
2022/07/16 03:44:42;;;;;;;6.27;5.70;;;11.90;80.20;;;10.91;74.99;98359.66;4992087;28;20468;-77
2022/07/16 03:47:09;;;;;;;8.43;6.40;;;11.90;80.20;;;10.88;74.06;98360.91;4992286;28;20455;-72
2022/07/16 03:49:37;;;;;;;5.90;5.30;;;11.90;79.90;;;10.93;74.39;98360.28;4993352;28;20520;-77
2022/07/16 03:52:04;;;;;;;6.83;5.90;;;12.00;79.70;;;10.94;74.27;98356.53;4989943;28;20461;-77
2022/07/16 03:54:32;;;;;;;8.07;5.80;;;12.00;79.50;;;11.07;73.95;98362.97;5001371;28;20456;-74
2022/07/16 03:57:01;;;;;;;6.97;5.53;;;12.10;79.80;;;10.99;74.42;98366.72;4992073;28;20468;-78
2022/07/16 03:59:28;;;;;;;6.37;5.77;;;12.10;79.90;;;11.09;74.16;98367.13;4991717;28;20491;-76
2022/07/16 04:01:55;;;;;;;7.03;5.63;;;12.10;79.80;;;11.24;73.55;98368.78;4996073;28;20492;-77
2022/07/16 04:04:22;;;;;;;6.57;5.83;;;12.20;79.20;;;11.23;73.32;98378.75;4992814;28;20518;-77
2022/07/16 04:06:49;;;;;;;9.10;6.17;;;12.20;79.30;;;11.18;73.58;98375.84;4996017;28;20472;-74
2022/07/16 04:09:17;;;;;;;8.63;6.63;;;12.30;79.10;;;11.30;72.95;98382.28;5002231;28;20457;-79
2022/07/16 04:11:44;;;;;;;6.57;5.87;;;12.30;78.90;;;11.34;72.52;98383.53;4994130;28;20495;-79
2022/07/16 04:14:13;;;;;;;6.90;6.20;;;12.40;78.70;;;11.43;72.11;98388.69;4991113;28;20545;-74
2022/07/16 04:16:41;;;;;;;8.10;5.77;;;12.50;78.20;;;11.82;70.10;98388.75;4991189;28;21340;-77
2022/07/16 04:19:08;;;;;;;6.20;5.60;;;12.80;76.40;;;12.46;67.41;98389.72;4997367;28;20583;-78
2022/07/16 04:21:36;;;;;;;8.00;5.60;;;13.40;74.50;;;13.54;63.02;98386.09;4998350;28;20566;-77
2022/07/16 04:24:03;;;;;;;5.60;4.70;;;14.40;70.40;;;14.40;59.48;98385.22;5002030;28;20469;-77
2022/07/16 04:26:31;;;;;;;6.03;5.53;;;15.30;66.80;;;15.10;56.94;98392.97;4997778;28;21305;-77
2022/07/16 04:28:58;;;;;;;6.87;5.90;;;16.20;63.80;;;15.67;54.72;98394.22;4994489;28;20457;-76
2022/07/16 04:31:27;;;;;;;6.20;5.10;;;16.70;60.30;;;16.19;53.42;98390.66;4994293;28;20885;-84
2022/07/16 04:33:54;;;;;;;7.90;6.13;;;17.30;59.00;;;16.50;52.28;98380.31;5014686;28;20462;-82
2022/07/16 04:36:21;;;;;;;6.40;5.70;;;17.60;57.80;;;17.09;50.68;98381.88;5002843;28;20460;-83
2022/07/16 04:38:49;;;;;;;6.20;5.60;;;18.40;56.50;;;16.95;50.23;98375.06;5003594;28;20993;-81
2022/07/16 04:41:16;;;;;;;5.90;5.30;;;18.80;54.80;;;17.46;49.20;98380.50;5021205;28;20482;-85
2022/07/16 04:43:44;;;;;;;6.67;5.80;;;18.70;54.50;;;18.09;47.96;98377.50;4996981;28;20490;-82
2022/07/16 04:46:11;;;;;;;6.17;5.67;;;19.30;53.70;;;17.86;48.66;98378.56;4998676;28;20511;-82
2022/07/16 04:48:40;;;;;;;6.30;5.70;;;19.40;53.20;;;18.44;47.12;98385.53;4997979;28;20475;-83
2022/07/16 04:51:07;;;;;;;6.40;5.13;;;19.70;52.90;;;17.41;49.19;98388.63;5016796;28;20471;-84
2022/07/16 04:53:37;;;;;;;7.03;5.23;;;19.70;51.90;;;18.54;46.65;98383.72;5002564;28;20456;-81
2022/07/16 04:56:05;;;;;;;10.17;5.87;;;20.00;51.80;;;18.88;45.62;98393.59;5004239;28;20464;-82
2022/07/16 04:58:33;;;;;;;8.73;5.80;;;20.20;51.50;;;18.98;45.32;98387.38;5004508;28;20505;-82
2022/07/16 05:01:01;;;;;;;5.60;5.00;;;20.50;51.00;;;20.16;42.48;98382.88;5018093;28;20915;-83
2022/07/16 05:03:28;;;;;;;5.50;5.00;;;21.20;50.50;;;20.98;41.00;98382.19;5004923;28;20885;-81
2022/07/16 05:05:57;;;;;;;5.83;5.00;;;22.00;49.60;;;21.29;39.83;98373.06;5002776;28;20455;-84
2022/07/16 05:08:24;;;;;;;5.43;4.70;;;22.40;48.50;;;21.37;39.82;98370.59;5001735;28;20467;-80
2022/07/16 05:10:52;;;;;;;5.20;4.70;;;22.50;48.30;;;21.46;39.16;98376.38;5007422;28;20499;-85
2022/07/16 05:13:19;;;;;;;5.30;4.90;;;22.50;47.70;;;21.52;38.78;98374.41;5007766;28;20448;-81
2022/07/16 05:15:46;;;;;;;5.37;3.70;;;22.40;47.70;;;21.43;39.06;98387.09;5007585;28;21105;-82
2022/07/16 05:18:13;;;;;;;5.63;4.37;;;22.50;47.50;;;21.29;39.51;98386.81;5022985;28;20443;-84
2022/07/16 05:20:41;;;;;;;6.63;4.70;;;22.40;47.50;;;21.59;38.90;98385.94;5004153;28;20482;-82
2022/07/16 05:23:09;;;;;;;5.70;5.20;;;22.50;47.40;;;21.46;39.19;98392.84;5006418;28;21121;-75
2022/07/16 05:25:36;;;;;;;5.10;4.60;;;22.50;47.30;;;21.36;39.40;98390.91;5004927;28;20495;-72
2022/07/16 05:28:04;;;;;;;6.60;4.60;;;22.60;47.20;;;21.57;38.87;98390.06;4999516;28;20470;-73
2022/07/16 05:30:31;;;;;;;4.70;4.30;;;22.80;47.00;;;21.57;38.92;98393.66;5015215;28;20452;-72
2022/07/16 05:32:59;;;;;;;8.80;4.60;;;22.90;46.90;;;21.20;39.63;98387.38;5020233;28;20524;-73
2022/07/16 05:35:26;;;;;;;5.57;4.90;;;22.70;46.70;;;21.35;39.51;98389.28;4994376;28;20534;-73
2022/07/16 05:37:53;;;;;;;6.60;4.57;;;22.80;46.70;;;21.41;39.59;98384.59;5002375;28;21030;-72
2022/07/16 05:40:22;;;;;;;4.70;4.30;;;22.90;46.80;;;21.08;40.60;98389.59;5004785;28;20567;-73
2022/07/16 05:42:49;;;;;;;9.53;5.10;;;22.80;46.70;;;20.74;41.48;98392.88;5002690;28;20471;-72
2022/07/16 05:45:17;;;;;;;5.70;5.20;;;22.70;46.90;;;21.33;40.29;98393.41;5002544;28;20505;-72
2022/07/16 05:47:45;;;;;;;9.60;5.30;;;23.20;47.10;;;21.83;39.50;98395.53;5014801;28;20462;-72
2022/07/16 05:50:12;;;;;;;6.57;5.90;;;23.30;46.80;;;22.18;38.72;98401.97;4997529;28;20466;-72
2022/07/16 05:52:39;;;;;;;5.00;4.47;;;23.60;46.50;;;21.81;38.39;98392.22;5021700;28;20537;-73
2022/07/16 05:55:08;;;;;;;7.73;4.30;;;23.50;46.00;;;21.92;38.24;98402.09;5002052;28;20539;-72
2022/07/16 05:57:36;;;;;;;6.03;4.77;;;23.40;45.90;;;21.35;40.06;98408.50;5013077;28;20518;-71
2022/07/16 06:00:06;;;;;;;4.73;4.33;;;23.30;46.40;;;19.40;43.47;98404.97;5016783;28;20485;-73
2022/07/16 06:02:33;;;;;;;6.17;4.60;;;22.10;46.10;;;20.43;41.63;98418.31;5021198;28;20475;-72
2022/07/16 06:05:00;;;;;;;4.70;3.70;;;22.20;46.70;;;21.21;39.82;98418.41;5001439;28;20467;-72
2022/07/16 06:07:27;;;;;;;8.40;4.50;;;22.70;46.30;;;21.77;38.28;98403.78;5004871;28;20455;-72
2022/07/16 06:09:55;;;;;;;7.20;4.13;;;23.30;45.80;;;22.58;36.27;98410.28;5005457;28;20456;-73
2022/07/16 06:12:22;;;;;;;8.10;4.13;;;23.90;44.80;;;21.39;38.48;98417.03;5002128;28;20462;-73
2022/07/16 06:14:50;;;;;;;4.13;3.60;;;23.60;44.70;;;22.04;37.15;98402.56;4999928;28;20453;-72
2022/07/16 06:17:17;;;;;;;4.97;4.47;;;23.80;44.90;;;22.21;37.13;98415.16;5015717;28;20621;-72
2022/07/16 06:19:45;;;;;;;4.93;3.43;;;23.70;45.00;;;22.57;35.91;98415.00;4996037;28;20551;-73
2022/07/16 06:22:12;;;;;;;6.47;3.97;;;24.10;44.40;;;21.90;36.94;98415.28;5004059;28;20467;-73
2022/07/16 06:24:39;;;;;;;9.93;3.90;;;23.70;44.20;;;21.99;36.93;98408.09;5013226;28;20524;-73
2022/07/16 06:27:07;;;;;;;4.93;4.07;;;23.50;44.40;;;21.37;37.86;98419.25;5002033;28;20491;-73
2022/07/16 06:29:34;;;;;;;4.07;3.53;;;23.10;44.20;;;20.17;39.74;98428.41;5000773;28;20457;-73
2022/07/16 06:32:03;;;;;;;4.27;3.50;;;22.10;44.50;;;18.74;42.78;98431.50;5000950;28;20498;-71
2022/07/16 06:34:30;;;;;;;6.57;3.30;;;20.70;45.20;;;17.65;46.03;98432.09;4998736;28;20465;-73
2022/07/16 06:36:57;;;;;;;6.60;3.93;;;19.40;46.60;;;17.01;47.52;98427.88;5014570;28;20932;-74
2022/07/16 06:39:24;;;;;;;4.60;3.37;;;18.50;47.50;;;16.92;47.89;98435.59;5003469;28;21144;-74
2022/07/16 06:41:52;;;;;;;5.03;3.63;;;18.10;48.30;;;16.75;48.68;98441.03;5002020;28;20582;-73
2022/07/16 06:44:19;;;;;;;5.90;3.93;;;17.90;49.10;;;16.63;49.16;98444.66;4998867;28;20491;-73
2022/07/16 06:46:46;;;;;;;4.23;3.00;;;17.70;49.70;;;16.66;49.25;98438.72;4998936;28;20464;-72
2022/07/16 06:49:15;;;;;;;3.60;3.07;;;17.60;50.20;;;16.55;49.78;98436.88;5009239;28;20455;-76
2022/07/16 06:51:42;;;;;;;6.23;3.33;;;17.60;50.10;;;16.71;49.36;98447.00;5010809;28;20463;-72
2022/07/16 06:54:09;;;;;;;6.03;4.00;;;17.70;50.30;;;16.84;49.16;98451.31;5003479;28;20463;-69
2022/07/16 06:56:36;;;;;;;3.90;3.10;;;17.80;50.30;;;16.74;49.41;98442.09;5003217;28;20455;-74
2022/07/16 06:59:04;;;;;;;4.00;3.63;;;17.70;50.10;;;16.75;49.75;98441.88;5000014;28;20520;-73
2022/07/16 07:01:31;;;;;;;3.80;3.40;;;17.80;50.60;;;16.88;49.77;98456.28;4997488;28;20555;-75
2022/07/16 07:03:59;;;;;;;6.20;3.80;;;17.80;50.70;;;16.89;49.79;98453.28;5002123;28;20584;-72
2022/07/16 07:06:27;;;;;;;4.83;3.43;;;17.80;50.80;;;16.97;48.98;98449.31;5006562;28;20454;-74
2022/07/16 07:08:55;;;;;;;9.93;3.90;;;17.90;50.60;;;16.98;50.33;98456.44;5001868;28;20546;-71
2022/07/16 07:11:22;;;;;;;5.20;3.27;;;18.00;51.10;;;17.22;49.29;98451.72;4998150;28;20531;-71
2022/07/16 07:13:49;;;;;;;6.90;3.30;;;18.10;51.10;;;17.50;47.96;98451.84;5000493;28;21426;-71
2022/07/16 07:16:17;;;;;;;4.50;3.10;;;18.40;50.00;;;17.48;47.48;98454.00;5005450;28;20463;-72
2022/07/16 07:18:45;;;;;;;4.43;3.23;;;18.40;49.80;;;17.38;48.22;98454.69;5007332;28;20454;-72
2022/07/16 07:21:12;;;;;;;5.80;3.43;;;18.30;50.00;;;17.61;47.29;98442.72;5006658;28;21143;-73
2022/07/16 07:23:41;;;;;;;4.80;3.57;;;18.50;49.90;;;17.68;47.24;98448.03;5007493;28;20467;-71
2022/07/16 07:26:08;;;;;;;3.67;2.90;;;18.60;49.80;;;17.72;47.51;98449.16;5006652;28;20450;-71
2022/07/16 07:28:35;;;;;;;5.87;2.70;;;18.70;49.80;;;17.75;47.24;98437.72;5006245;28;20451;-73
2022/07/16 07:31:03;;;;;;;5.73;3.00;;;18.70;49.80;;;17.78;47.18;98447.34;5008703;28;20454;-71
2022/07/16 07:33:30;;;;;;;3.70;2.87;;;18.70;49.80;;;17.77;46.39;98434.75;5007848;28;20487;-73
2022/07/16 07:35:57;;;;;;;4.10;2.70;;;18.70;49.50;;;17.77;46.91;98432.81;5007982;28;20500;-72
2022/07/16 07:38:25;;;;;;;4.30;2.90;;;18.70;49.40;;;18.16;45.94;98429.25;5007119;28;20459;-72
2022/07/16 07:40:53;;;;;;;3.40;2.73;;;19.00;49.30;;;18.27;45.84;98431.03;4988241;28;20563;-70
2022/07/16 07:43:21;;;;;;;8.40;2.93;;;19.10;49.30;;;18.30;44.56;98423.38;4987043;28;20496;-70
2022/07/16 07:45:48;;;;;;;6.33;3.20;;;19.20;48.50;;;18.42;44.84;98424.06;5000675;28;20443;-72
2022/07/16 07:48:15;;;;;;;6.50;2.43;;;19.40;48.70;;;18.74;44.37;98428.78;5024476;28;20497;-71
2022/07/16 07:50:43;;;;;;;2.57;2.17;;;19.60;48.90;;;18.85;43.04;98437.91;5006739;28;20538;-71
2022/07/16 07:53:10;;;;;;;4.27;2.90;;;19.70;47.90;;;18.72;42.91;98427.38;5009113;28;20454;-71
2022/07/16 07:55:37;;;;;;;3.30;2.00;;;19.60;47.40;;;18.74;42.12;98430.69;5004703;28;20460;-71
2022/07/16 07:58:06;;;;;;;3.10;2.50;;;19.60;46.80;;;18.89;42.19;98430.84;5007897;28;20490;-72
2022/07/16 08:00:33;;;;;;;3.10;1.97;;;19.70;46.90;;;18.91;41.94;98430.56;5007659;28;20513;-72
2022/07/16 08:03:00;;;;;;;5.50;2.50;;;19.70;46.80;;;18.96;42.23;98438.84;5008587;28;20458;-71
2022/07/16 08:05:28;;;;;;;7.70;2.73;;;19.80;47.10;;;18.90;41.98;98426.16;5004660;28;20514;-71
2022/07/16 08:07:55;;;;;;;4.20;2.60;;;19.80;46.80;;;19.28;42.41;98423.50;5005688;28;20439;-72
2022/07/16 08:10:22;;;;;;;3.83;2.50;;;20.00;47.30;;;19.62;41.05;98426.75;4986326;28;21047;-71
2022/07/16 08:12:50;;;;;;;2.90;2.33;;;20.30;46.80;;;19.38;41.21;98409.88;4996083;28;20466;-71
2022/07/16 08:15:18;;;;;;;5.13;2.70;;;20.30;46.50;;;19.36;41.20;98418.34;5024677;28;20470;-71
2022/07/16 08:17:45;;;;;;;2.70;2.50;;;20.20;46.50;;;19.40;41.38;98416.72;5028262;28;20450;-71
2022/07/16 08:20:14;;;;;;;2.23;2.00;;;20.30;46.70;;;19.17;40.40;98371.38;5026664;28;20454;-72
2022/07/16 08:22:42;;;;;;;2.40;2.00;;;20.30;46.30;;;19.41;40.51;98428.53;5027811;28;20504;-72
2022/07/16 08:27:55;;;;;;;2.73;2.40;;;20.40;46.50;;;19.53;39.63;98415.47;5022930;28;20829;-72
2022/07/16 08:30:23;;;;;;;4.40;2.20;;;20.30;45.50;;;19.50;40.39;98421.47;4987591;28;20436;-71
2022/07/16 08:32:51;;;;;;;2.30;2.00;;;20.30;45.80;;;19.74;39.19;98420.22;5006339;28;20831;-72
2022/07/16 08:35:19;;;;;;;2.07;1.83;;;20.50;45.30;;;19.49;38.62;98422.56;4997505;28;20895;-72
2022/07/16 08:37:48;;;;;;;4.83;1.90;;;20.30;44.60;;;19.58;38.06;98416.56;4990684;28;20886;-71
2022/07/16 08:40:17;;;;;;;3.60;1.90;;;20.40;44.50;;;19.57;38.42;98426.72;4997933;28;20560;-72
2022/07/16 08:42:45;;;;;;;4.50;1.90;;;20.40;44.70;;;19.66;38.06;98418.81;5002882;28;20551;-73
2022/07/16 08:45:15;;;;;;;2.10;1.90;;;20.40;44.20;;;19.91;37.66;98417.28;4998440;28;20560;-72
2022/07/16 08:47:44;;;;;;;1.93;1.63;;;20.60;44.10;;;20.22;37.36;98422.91;5001484;28;21155;-73
2022/07/16 08:50:14;;;;;;;3.47;2.00;;;20.90;44.40;;;20.35;37.83;98421.59;5000687;28;20455;-72
2022/07/16 08:52:44;;;;;;;2.70;1.90;;;21.00;44.60;;;20.15;37.28;98425.09;5002836;28;20447;-73
2022/07/16 08:55:12;;;;;;;4.20;2.00;;;21.00;44.20;;;19.90;37.14;98443.06;4999382;28;20467;-72
2022/07/16 08:57:41;;;;;;;1.97;1.47;;;20.70;43.50;;;19.80;36.84;98430.13;5002646;28;21265;-78
2022/07/16 09:00:12;;;;;;;3.60;3.30;;;20.70;43.30;;;20.12;36.45;98425.66;4999565;28;20463;-77
2022/07/16 09:02:40;;;;;;;3.77;1.67;;;20.80;43.50;;;20.22;36.19;98428.41;5010130;28;20506;-75
2022/07/16 09:05:09;;;;;;;3.10;1.50;;;20.90;43.10;;;20.03;36.82;98423.41;5001897;28;20483;-74
2022/07/16 09:07:37;;;;;;;3.03;1.90;;;20.80;43.30;;;20.34;36.02;98429.00;5022624;28;20466;-83
2022/07/16 09:10:07;;;;;;;2.80;2.00;;;21.00;43.50;;;20.19;36.33;98427.03;5004126;28;20475;-82
2022/07/16 09:12:38;;;;;;;2.93;1.63;;;21.00;43.00;;;20.19;35.52;98432.53;5002210;28;21110;-78
2022/07/16 09:15:29;;;;;;;2.57;1.60;;;20.90;42.70;;;20.41;35.85;98430.69;5001242;28;20455;-78
2022/07/16 09:18:24;;;;;;;4.23;2.60;;;21.00;42.90;;;20.61;35.44;98427.13;5007281;28;20510;-81
2022/07/16 09:20:57;;;;;;;2.10;1.90;;;21.30;42.70;;;20.50;33.94;98429.03;4965524;28;20483;-78
2022/07/16 09:23:28;;;;;;;3.10;1.80;;;21.30;41.50;;;20.42;33.90;98418.59;5011450;28;20808;-72
2022/07/16 09:25:59;;;;;;;1.77;1.67;;;21.30;41.40;;;21.01;34.64;98441.25;5007614;28;20507;-84
2022/07/16 09:28:40;;;;;;;2.10;1.40;;;21.60;42.10;;;20.66;34.83;98441.69;4991492;28;20835;-81
2022/07/16 09:31:07;;;;;;;2.27;1.50;;;21.40;42.10;;;20.74;34.70;98410.13;4994944;28;20474;-81
2022/07/16 09:33:34;;;;;;;3.47;1.70;;;21.60;42.40;;;21.28;34.30;98434.63;5006366;28;20536;-80
2022/07/16 09:36:10;;;;;;;3.00;1.50;;;21.90;42.50;;;21.15;35.18;98434.06;5008131;28;20481;-78
2022/07/16 09:38:50;;;;;;;2.30;1.83;;;21.90;42.90;;;20.95;35.12;98427.50;5003172;28;20934;-77
2022/07/16 09:41:18;;;;;;;3.30;1.80;;;21.70;42.50;;;21.25;34.80;98430.53;5014247;28;20453;-80
2022/07/16 09:43:45;;;;;;;2.30;1.53;;;21.90;42.90;;;21.51;34.66;98409.31;5007994;28;20573;-80
2022/07/16 09:46:18;;;;;;;3.43;1.87;;;22.10;42.90;;;21.70;34.27;98408.75;5011473;28;20479;-81
2022/07/16 09:48:45;;;;;;;2.90;2.13;;;22.40;42.80;;;21.73;34.13;98413.69;5020570;28;20451;-77
2022/07/16 09:51:18;;;;;;;3.50;1.93;;;22.40;42.60;;;21.87;34.04;98410.34;5014396;28;20990;-79
2022/07/16 09:53:47;;;;;;;2.50;1.50;;;22.50;42.60;;;21.81;33.96;98408.72;5011535;28;20452;-79
2022/07/16 09:56:17;;;;;;;2.37;2.17;;;22.60;42.50;;;21.65;34.56;98390.34;5008505;28;20453;-84
2022/07/16 09:58:50;;;;;;;3.43;1.67;;;22.50;42.90;;;21.43;34.87;98376.09;5021360;28;21041;-83
2022/07/16 10:01:19;;;;;;;1.70;1.60;;;22.30;42.90;;;21.62;34.43;98415.63;5025190;28;20496;-81
2022/07/16 10:03:51;;;;;;;3.60;1.60;;;22.40;42.70;;;21.52;34.97;98405.47;5012980;28;20574;-80
2022/07/16 10:06:20;;;;;;;2.07;1.80;;;22.40;42.90;;;21.44;34.99;98417.00;5005576;28;20459;-82
2022/07/16 10:08:47;;;;;;;3.77;1.70;;;22.20;43.00;;;21.47;35.53;98401.91;5012159;28;20999;-82
2022/07/16 10:11:15;;;;;;;3.47;2.30;;;22.20;43.30;;;21.57;35.33;98407.38;5014711;28;20452;-80
2022/07/16 10:13:44;;;;;;;2.77;1.53;;;22.20;43.20;;;21.63;34.92;98408.19;5011332;28;20857;-81
2022/07/16 10:16:14;;;;;;;1.67;1.10;;;22.30;42.90;;;21.89;34.41;98399.88;5010698;28;20835;-80
2022/07/16 10:18:43;;;;;;;1.70;1.60;;;22.50;42.70;;;22.19;33.62;98403.59;4999920;28;20488;-77
2022/07/16 10:21:15;;;;;;;3.00;1.30;;;22.80;42.50;;;22.18;32.40;98393.72;5005369;28;20528;-81
2022/07/16 10:23:47;;;;;;;2.20;1.60;;;22.80;41.70;;;21.89;33.24;98394.38;5001774;28;20449;-80
2022/07/16 10:26:19;;;;;;;1.90;1.80;;;22.60;41.80;;;22.32;33.27;98396.69;5005883;28;20542;-81
2022/07/16 10:28:49;;;;;;;1.93;1.30;;;22.80;42.10;;;22.56;31.97;98391.34;5004179;28;20475;-79